Time;durP1;ratioP1;P1;durP2;ratioP2;P2;SDS_P1;SDS_P2;PMS_P1;PMS_P2;Temp;Humidity;BMP_temperature;BMP_pressure;BME280_temperature;BME280_humidity;BME280_pressure;Samples;Min_cycle;Max_cycle;Signal;HPM_P1;HPM_P2
2023/07/06 00:01:56;;;;;;;2.43;2.33;;;;;;;;;;5052893;28;20410;-45
2023/07/06 00:04:23;;;;;;;3.50;3.00;;;;;;;;;;5053051;28;20423;-48
2023/07/06 00:06:49;;;;;;;4.63;3.53;;;;;;;;;;5052699;28;20417;-45
2023/07/06 00:09:16;;;;;;;3.23;2.80;;;;;;;;;;5052989;28;20442;-48
2023/07/06 00:11:44;;;;;;;3.20;2.90;;;;;;;;;;5052748;28;20412;-49
2023/07/06 00:14:11;;;;;;;3.07;2.87;;;;;;;;;;5052762;28;20454;-45
2023/07/06 00:16:41;;;;;;;3.77;3.10;;;;;;;;;;5052710;28;20405;-45
2023/07/06 00:19:08;;;;;;;13.87;4.07;;;;;;;;;;5060229;28;20869;-47
2023/07/06 00:21:34;;;;;;;4.63;2.70;;;;;;;;;;5052827;28;20412;-47
2023/07/06 00:24:00;;;;;;;5.07;2.70;;;;;;;;;;5052649;28;20504;-45
2023/07/06 00:26:27;;;;;;;5.33;2.90;;;;;;;;;;5052531;28;20484;-45
2023/07/06 00:28:53;;;;;;;5.10;3.53;;;;;;;;;;5052567;28;20438;-46
2023/07/06 00:31:32;;;;;;;3.10;2.80;;;;;;;;;;5052313;28;20419;-46
2023/07/06 00:34:03;;;;;;;3.60;2.50;;;;;;;;;;5052246;28;20480;-45
2023/07/06 00:36:29;;;;;;;3.00;2.77;;;;;;;;;;5054023;28;20409;-46
2023/07/06 00:38:55;;;;;;;3.60;3.00;;;;;;;;;;5052257;28;20416;-45
2023/07/06 00:41:21;;;;;;;3.43;2.80;;;;;;;;;;5052030;28;20796;-45
2023/07/06 00:43:52;;;;;;;3.50;3.13;;;;;;;;;;5052297;28;20508;-45
2023/07/06 00:46:19;;;;;;;2.90;2.70;;;;;;;;;;5052230;28;20409;-46
2023/07/06 00:48:45;;;;;;;4.83;3.00;;;;;;;;;;5052357;28;20437;-47
2023/07/06 00:51:17;;;;;;;3.20;2.40;;;;;;;;;;5052103;28;20429;-46
2023/07/06 00:53:45;;;;;;;3.40;3.10;;;;;;;;;;5044650;28;20467;-48
2023/07/06 00:56:16;;;;;;;4.33;3.10;;;;;;;;;;5052066;28;20413;-46
2023/07/06 00:58:44;;;;;;;4.87;3.23;;;;;;;;;;5044488;28;20456;-46
2023/07/06 01:01:11;;;;;;;4.63;2.60;;;;;;;;;;5051323;28;20405;-49
2023/07/06 01:03:47;;;;;;;3.40;3.10;;;;;;;;;;5051321;28;20391;-46
2023/07/06 01:06:17;;;;;;;3.40;3.10;;;;;;;;;;5051385;28;20415;-46
2023/07/06 01:08:46;;;;;;;3.23;2.93;;;;;;;;;;5051755;28;20897;-46
2023/07/06 01:11:14;;;;;;;3.07;2.80;;;;;;;;;;5051775;28;20509;-46
2023/07/06 01:13:46;;;;;;;4.43;3.33;;;;;;;;;;5051560;28;20461;-45
2023/07/06 01:16:30;;;;;;;5.17;3.20;;;;;;;;;;5051766;28;20411;-50
2023/07/06 01:19:09;;;;;;;4.73;3.00;;;;;;;;;;5051902;28;20767;-45
2023/07/06 01:21:45;;;;;;;4.23;2.70;;;;;;;;;;5051371;28;20417;-48
2023/07/06 01:24:17;;;;;;;4.77;2.80;;;;;;;;;;5051032;28;20409;-46
2023/07/06 01:26:56;;;;;;;3.67;3.37;;;;;;;;;;5044057;28;20405;-49
2023/07/06 01:29:36;;;;;;;3.73;3.40;;;;;;;;;;5051574;28;20429;-45
2023/07/06 01:32:04;;;;;;;7.03;2.77;;;;;;;;;;5046778;28;20401;-47
2023/07/06 01:34:41;;;;;;;5.90;3.10;;;;;;;;;;5051195;28;20457;-48
2023/07/06 01:37:12;;;;;;;7.63;2.93;;;;;;;;;;5051336;28;20931;-48
2023/07/06 01:39:38;;;;;;;6.10;3.07;;;;;;;;;;5051375;28;20922;-45
2023/07/06 01:42:13;;;;;;;6.20;3.10;;;;;;;;;;5051425;28;20384;-46
2023/07/06 01:44:46;;;;;;;5.53;3.30;;;;;;;;;;5043425;28;20875;-47
2023/07/06 01:47:13;;;;;;;4.17;3.20;;;;;;;;;;5051493;28;20828;-46
2023/07/06 01:49:39;;;;;;;3.93;2.97;;;;;;;;;;5043203;28;20469;-56
2023/07/06 01:52:10;;;;;;;4.83;3.30;;;;;;;;;;5051280;28;20406;-49
2023/07/06 01:54:41;;;;;;;4.80;2.90;;;;;;;;;;5051297;28;20461;-46
2023/07/06 01:57:13;;;;;;;4.33;3.07;;;;;;;;;;5047205;28;20388;-46
2023/07/06 01:59:40;;;;;;;4.17;3.77;;;;;;;;;;5049342;28;20393;-54
2023/07/06 02:02:07;;;;;;;5.17;3.33;;;;;;;;;;5051380;28;20398;-49
2023/07/06 02:04:34;;;;;;;6.50;3.50;;;;;;;;;;5051113;28;20409;-45
2023/07/06 02:07:05;;;;;;;3.50;3.20;;;;;;;;;;5050970;28;20430;-46
2023/07/06 02:09:31;;;;;;;3.33;3.13;;;;;;;;;;5051227;28;20515;-45
2023/07/06 02:11:57;;;;;;;3.40;3.10;;;;;;;;;;5050865;28;20915;-47
2023/07/06 02:14:23;;;;;;;3.33;2.77;;;;;;;;;;5050991;28;20515;-46
2023/07/06 02:16:52;;;;;;;5.93;3.60;;;;;;;;;;5051119;28;20401;-47
2023/07/06 02:19:21;;;;;;;3.40;3.07;;;;;;;;;;5051115;28;20507;-46
2023/07/06 02:21:49;;;;;;;4.40;4.00;;;;;;;;;;5050908;28;21061;-46
2023/07/06 02:24:15;;;;;;;5.00;3.37;;;;;;;;;;5050838;28;20414;-45
2023/07/06 02:26:40;;;;;;;3.70;3.40;;;;;;;;;;5044797;28;20816;-46
2023/07/06 02:29:06;;;;;;;5.23;3.70;;;;;;;;;;5033357;28;20786;-45
2023/07/06 02:31:34;;;;;;;4.10;3.70;;;;;;;;;;5050256;28;20417;-47
2023/07/06 02:34:01;;;;;;;5.97;3.50;;;;;;;;;;5051089;28;21005;-45
2023/07/06 02:36:27;;;;;;;5.13;4.10;;;;;;;;;;5053698;28;20401;-46
2023/07/06 02:38:53;;;;;;;5.53;3.90;;;;;;;;;;5055123;28;20449;-48
2023/07/06 02:41:19;;;;;;;7.00;4.30;;;;;;;;;;5054336;28;20413;-45
2023/07/06 02:43:45;;;;;;;4.90;3.87;;;;;;;;;;5057667;28;20430;-50
2023/07/06 02:46:11;;;;;;;4.67;4.23;;;;;;;;;;5058264;28;20409;-49
2023/07/06 02:48:39;;;;;;;4.70;4.30;;;;;;;;;;5054345;28;20494;-50
2023/07/06 02:51:06;;;;;;;14.80;5.93;;;;;;;;;;5054392;28;20443;-50
2023/07/06 02:53:32;;;;;;;6.37;4.83;;;;;;;;;;5054217;28;21292;-47
2023/07/06 02:55:58;;;;;;;5.57;5.07;;;;;;;;;;5054507;28;20410;-46
2023/07/06 02:58:24;;;;;;;9.13;5.70;;;;;;;;;;5054197;28;20433;-48
2023/07/06 03:00:50;;;;;;;7.70;5.60;;;;;;;;;;5054079;28;20934;-50
2023/07/06 03:03:16;;;;;;;5.57;4.77;;;;;;;;;;5054316;28;21085;-47
2023/07/06 03:05:46;;;;;;;6.73;4.70;;;;;;;;;;5054149;28;20486;-45
2023/07/06 03:08:12;;;;;;;8.17;5.40;;;;;;;;;;5053940;28;20445;-47
2023/07/06 03:10:38;;;;;;;6.13;4.60;;;;;;;;;;5054093;28;20478;-45
2023/07/06 03:13:06;;;;;;;7.93;4.80;;;;;;;;;;5054066;28;20397;-46
2023/07/06 03:15:32;;;;;;;4.47;4.13;;;;;;;;;;5053880;28;20825;-48
2023/07/06 03:17:57;;;;;;;5.20;4.70;;;;;;;;;;5053839;28;20426;-47
2023/07/06 03:20:24;;;;;;;9.03;4.53;;;;;;;;;;5056201;28;20917;-51
2023/07/06 03:22:51;;;;;;;4.53;4.07;;;;;;;;;;5053742;28;20413;-49
2023/07/06 03:25:23;;;;;;;6.60;3.77;;;;;;;;;;5053667;28;20417;-45
2023/07/06 03:27:49;;;;;;;7.13;4.30;;;;;;;;;;5053705;28;20457;-45
2023/07/06 03:30:19;;;;;;;6.13;4.07;;;;;;;;;;5053436;28;20895;-47
2023/07/06 03:32:45;;;;;;;4.77;4.30;;;;;;;;;;5053699;28;20487;-48
2023/07/06 03:35:13;;;;;;;12.13;4.20;;;;;;;;;;5053420;28;20456;-47
2023/07/06 03:37:39;;;;;;;9.20;4.50;;;;;;;;;;5045561;28;20424;-47
2023/07/06 03:40:10;;;;;;;7.50;4.73;;;;;;;;;;5053334;28;20406;-48
2023/07/06 03:42:38;;;;;;;6.67;4.37;;;;;;;;;;5053710;28;20451;-48
2023/07/06 03:45:05;;;;;;;4.50;3.87;;;;;;;;;;5053501;28;20420;-50
2023/07/06 03:47:33;;;;;;;6.27;4.30;;;;;;;;;;5052807;28;20781;-48
2023/07/06 03:49:59;;;;;;;5.30;4.80;;;;;;;;;;5053410;28;20924;-48
2023/07/06 03:52:25;;;;;;;5.43;4.20;;;;;;;;;;5053341;28;20406;-48
2023/07/06 03:54:51;;;;;;;4.13;3.83;;;;;;;;;;5053281;28;20488;-48
2023/07/06 03:57:17;;;;;;;5.57;4.43;;;;;;;;;;5053199;28;20429;-48
2023/07/06 03:59:43;;;;;;;11.70;4.20;;;;;;;;;;5053032;28;20440;-48
2023/07/06 04:02:10;;;;;;;6.33;4.20;;;;;;;;;;5053209;28;20760;-47
2023/07/06 04:04:36;;;;;;;4.60;4.20;;;;;;;;;;5035154;28;20866;-47
2023/07/06 04:07:02;;;;;;;7.80;4.27;;;;;;;;;;5052763;28;20523;-48
2023/07/06 04:09:29;;;;;;;4.10;3.70;;;;;;;;;;5052934;28;20512;-48
2023/07/06 04:11:55;;;;;;;5.43;4.40;;;;;;;;;;5052807;28;20462;-47
2023/07/06 04:14:25;;;;;;;4.50;3.30;;;;;;;;;;5052847;28;20480;-48
2023/07/06 04:16:51;;;;;;;5.87;3.77;;;;;;;;;;5030517;28;20485;-48
2023/07/06 04:19:18;;;;;;;4.00;3.60;;;;;;;;;;5052929;28;20424;-48
2023/07/06 04:21:44;;;;;;;6.80;4.03;;;;;;;;;;5053702;28;20417;-48
2023/07/06 04:24:10;;;;;;;5.93;3.70;;;;;;;;;;5052766;28;20767;-48
2023/07/06 04:26:36;;;;;;;3.70;3.40;;;;;;;;;;5052487;28;20414;-48
2023/07/06 04:29:02;;;;;;;4.27;3.83;;;;;;;;;;5052566;28;20889;-47
2023/07/06 04:31:28;;;;;;;8.27;4.67;;;;;;;;;;5052122;28;20412;-48
2023/07/06 04:33:54;;;;;;;8.60;3.63;;;;;;;;;;5052472;28;20456;-48
2023/07/06 04:36:20;;;;;;;4.27;3.87;;;;;;;;;;5052506;28;20475;-47
2023/07/06 04:38:46;;;;;;;5.70;4.77;;;;;;;;;;5052375;28;20448;-48
2023/07/06 04:41:13;;;;;;;4.60;4.10;;;;;;;;;;5052889;28;20418;-47
2023/07/06 04:43:39;;;;;;;8.70;4.03;;;;;;;;;;5051706;28;20832;-47
2023/07/06 04:46:05;;;;;;;5.83;4.17;;;;;;;;;;5051665;28;20413;-48
2023/07/06 04:48:34;;;;;;;4.80;4.07;;;;;;;;;;5052146;28;20429;-49
2023/07/06 04:51:01;;;;;;;7.43;3.90;;;;;;;;;;5051992;28;20922;-50
2023/07/06 04:53:28;;;;;;;5.00;3.20;;;;;;;;;;5051827;28;20409;-48
2023/07/06 04:55:59;;;;;;;4.30;3.90;;;;;;;;;;5051673;28;20425;-48
2023/07/06 04:58:25;;;;;;;6.40;4.00;;;;;;;;;;5051372;28;20532;-49
2023/07/06 05:00:51;;;;;;;8.00;3.83;;;;;;;;;;5051770;28;20986;-49
2023/07/06 05:03:17;;;;;;;4.60;4.17;;;;;;;;;;5051930;28;20432;-49
2023/07/06 05:05:45;;;;;;;6.13;3.80;;;;;;;;;;5051882;28;20437;-48
2023/07/06 05:08:16;;;;;;;4.37;3.53;;;;;;;;;;5051806;28;20425;-47
2023/07/06 05:10:43;;;;;;;8.33;4.33;;;;;;;;;;5044041;28;20884;-48
2023/07/06 05:13:09;;;;;;;9.80;3.63;;;;;;;;;;5051954;28;20401;-47
2023/07/06 05:15:36;;;;;;;4.63;3.40;;;;;;;;;;5051598;28;20461;-48
2023/07/06 05:18:03;;;;;;;6.57;3.37;;;;;;;;;;5051778;28;20458;-48
2023/07/06 05:20:31;;;;;;;8.60;3.50;;;;;;;;;;5058017;28;20413;-48
2023/07/06 05:22:57;;;;;;;6.00;4.27;;;;;;;;;;5051071;28;20467;-48
2023/07/06 05:25:23;;;;;;;10.97;4.97;;;;;;;;;;5050937;28;20448;-50
2023/07/06 05:27:49;;;;;;;6.10;3.40;;;;;;;;;;5051011;28;20448;-49
2023/07/06 05:30:16;;;;;;;5.77;3.70;;;;;;;;;;5050721;28;20493;-48
2023/07/06 05:32:42;;;;;;;5.37;3.30;;;;;;;;;;5051337;28;20409;-48
2023/07/06 05:35:08;;;;;;;4.30;3.17;;;;;;;;;;5050912;28;20464;-50
2023/07/06 05:37:34;;;;;;;5.63;3.50;;;;;;;;;;5050759;28;20412;-48
2023/07/06 05:40:04;;;;;;;16.23;3.73;;;;;;;;;;5051069;28;20850;-49
2023/07/06 05:42:30;;;;;;;8.20;3.90;;;;;;;;;;5050979;28;20424;-48
2023/07/06 05:44:55;;;;;;;4.90;2.80;;;;;;;;;;5051279;28;20425;-49
2023/07/06 05:47:21;;;;;;;3.57;3.10;;;;;;;;;;5052603;28;20444;-48
2023/07/06 05:49:47;;;;;;;2.93;2.73;;;;;;;;;;5049282;28;20381;-50
2023/07/06 05:52:13;;;;;;;12.80;3.87;;;;;;;;;;5053610;28;20852;-47
2023/07/06 05:54:39;;;;;;;5.90;3.23;;;;;;;;;;5053697;28;20491;-48
2023/07/06 05:57:06;;;;;;;3.60;2.53;;;;;;;;;;5053732;28;20487;-48
2023/07/06 05:59:32;;;;;;;6.57;3.50;;;;;;;;;;5043864;28;20426;-48
2023/07/06 06:01:59;;;;;;;6.07;3.23;;;;;;;;;;5032346;28;20401;-46
2023/07/06 06:04:25;;;;;;;10.93;3.77;;;;;;;;;;5056802;28;20881;-47
2023/07/06 06:06:54;;;;;;;11.63;4.70;;;;;;;;;;5053370;28;20465;-48
2023/07/06 06:09:21;;;;;;;6.70;3.30;;;;;;;;;;5060413;28;20412;-50
2023/07/06 06:11:48;;;;;;;15.80;4.00;;;;;;;;;;5055056;28;20445;-48
2023/07/06 06:14:14;;;;;;;6.10;3.47;;;;;;;;;;5054863;28;20496;-49
2023/07/06 06:16:40;;;;;;;3.90;3.47;;;;;;;;;;5055177;28;20784;-48
2023/07/06 06:19:07;;;;;;;9.77;3.77;;;;;;;;;;5055341;28;20885;-49
2023/07/06 06:21:33;;;;;;;10.27;3.93;;;;;;;;;;5060253;28;20426;-47
2023/07/06 06:24:00;;;;;;;7.43;3.50;;;;;;;;;;5054747;28;20413;-48
2023/07/06 06:26:27;;;;;;;6.30;3.23;;;;;;;;;;5054709;28;20753;-48
2023/07/06 06:28:53;;;;;;;5.37;3.33;;;;;;;;;;5055156;28;20869;-48
2023/07/06 06:31:19;;;;;;;4.50;3.57;;;;;;;;;;5054610;28;20409;-47
2023/07/06 06:33:46;;;;;;;4.13;3.20;;;;;;;;;;5054461;28;20458;-49
2023/07/06 06:36:13;;;;;;;6.07;3.30;;;;;;;;;;5054766;28;20405;-48
2023/07/06 06:38:39;;;;;;;7.63;3.60;;;;;;;;;;5046393;28;20493;-48
2023/07/06 06:41:10;;;;;;;5.47;3.10;;;;;;;;;;5054469;28;20881;-47
2023/07/06 06:43:38;;;;;;;9.13;3.00;;;;;;;;;;5054384;28;20798;-48
2023/07/06 06:46:05;;;;;;;10.03;3.80;;;;;;;;;;5054461;28;20835;-48
2023/07/06 06:48:32;;;;;;;10.47;4.03;;;;;;;;;;5054109;28;20421;-48
2023/07/06 06:50:58;;;;;;;8.27;3.63;;;;;;;;;;5054367;28;20407;-47
2023/07/06 06:53:26;;;;;;;13.97;4.00;;;;;;;;;;5054306;28;20505;-50
2023/07/06 06:55:52;;;;;;;8.37;3.47;;;;;;;;;;5054276;28;20457;-48
2023/07/06 06:58:20;;;;;;;7.53;3.60;;;;;;;;;;5054248;28;20405;-48
2023/07/06 07:00:46;;;;;;;9.80;4.27;;;;;;;;;;5053919;28;20381;-48
2023/07/06 07:03:13;;;;;;;8.43;3.83;;;;;;;;;;5054007;28;20403;-48
2023/07/06 07:05:40;;;;;;;5.80;3.20;;;;;;;;;;5046103;28;20963;-48
2023/07/06 07:08:06;;;;;;;3.80;3.40;;;;;;;;;;5054174;28;20470;-49
2023/07/06 07:10:32;;;;;;;7.27;3.47;;;;;;;;;;5053932;28;20387;-48
2023/07/06 07:12:59;;;;;;;9.90;3.20;;;;;;;;;;5054040;28;20934;-48
2023/07/06 07:15:25;;;;;;;42.53;6.73;;;;;;;;;;5059952;28;20459;-48
2023/07/06 07:17:51;;;;;;;7.30;3.70;;;;;;;;;;5053901;28;20755;-48
2023/07/06 07:20:18;;;;;;;9.60;4.30;;;;;;;;;;5053696;28;20748;-48
2023/07/06 07:22:44;;;;;;;20.90;4.63;;;;;;;;;;5053169;28;20455;-47
2023/07/06 07:25:11;;;;;;;6.20;3.60;;;;;;;;;;5053918;28;20412;-48
2023/07/06 07:27:37;;;;;;;15.00;3.90;;;;;;;;;;5053777;28;20403;-48
2023/07/06 07:30:08;;;;;;;10.33;3.70;;;;;;;;;;5053376;28;20398;-48
2023/07/06 07:32:34;;;;;;;12.63;5.07;;;;;;;;;;5053822;28;20514;-48
2023/07/06 07:35:01;;;;;;;8.20;3.10;;;;;;;;;;5053738;28;20888;-48
2023/07/06 07:37:27;;;;;;;8.10;3.20;;;;;;;;;;5053589;28;20400;-47
2023/07/06 07:39:53;;;;;;;9.73;3.27;;;;;;;;;;5053589;28;20390;-47
2023/07/06 07:42:19;;;;;;;6.10;3.33;;;;;;;;;;5053487;28;20437;-48
2023/07/06 07:44:46;;;;;;;8.37;2.90;;;;;;;;;;5053253;28;20942;-48
2023/07/06 07:47:12;;;;;;;7.97;3.20;;;;;;;;;;5053406;28;20432;-47
2023/07/06 07:49:38;;;;;;;5.23;2.73;;;;;;;;;;5050835;28;20445;-48
2023/07/06 07:52:05;;;;;;;8.20;3.43;;;;;;;;;;5053296;28;20434;-48
2023/07/06 07:54:31;;;;;;;7.93;3.30;;;;;;;;;;5051978;28;20815;-48
2023/07/06 07:56:57;;;;;;;16.83;3.83;;;;;;;;;;5052908;28;20400;-48
2023/07/06 07:59:23;;;;;;;3.50;2.53;;;;;;;;;;5053038;28;20403;-48
2023/07/06 08:01:50;;;;;;;4.63;3.10;;;;;;;;;;5053003;28;20415;-47
2023/07/06 08:04:16;;;;;;;8.47;3.23;;;;;;;;;;5053258;28;20441;-49
2023/07/06 08:06:42;;;;;;;3.90;2.73;;;;;;;;;;5052965;28;20406;-50
2023/07/06 08:09:09;;;;;;;4.87;2.97;;;;;;;;;;5053116;28;20396;-48
2023/07/06 08:11:38;;;;;;;4.00;2.60;;;;;;;;;;5052749;28;20933;-48
2023/07/06 08:14:08;;;;;;;4.27;2.90;;;;;;;;;;5052699;28;20826;-48
2023/07/06 08:16:34;;;;;;;7.80;2.80;;;;;;;;;;5053010;28;20407;-48
2023/07/06 08:19:02;;;;;;;8.77;3.30;;;;;;;;;;5053871;28;20836;-49
2023/07/06 08:21:28;;;;;;;4.43;2.70;;;;;;;;;;5052650;28;20976;-48
2023/07/06 08:23:57;;;;;;;10.03;2.70;;;;;;;;;;5052755;28;20431;-49
2023/07/06 08:26:24;;;;;;;4.53;3.07;;;;;;;;;;5050444;28;20468;-48
2023/07/06 08:28:50;;;;;;;3.20;2.53;;;;;;;;;;5052668;28;20425;-48
2023/07/06 08:31:17;;;;;;;9.50;2.53;;;;;;;;;;5052372;28;20445;-50
2023/07/06 08:33:43;;;;;;;3.10;2.50;;;;;;;;;;5051396;28;20405;-49
2023/07/06 08:36:11;;;;;;;4.03;2.70;;;;;;;;;;5052525;28;20912;-48
2023/07/06 08:38:37;;;;;;;3.40;2.60;;;;;;;;;;5052379;28;20487;-48
2023/07/06 08:41:04;;;;;;;5.13;2.70;;;;;;;;;;5052020;28;20402;-48
2023/07/06 08:43:31;;;;;;;6.00;2.50;;;;;;;;;;5052397;28;20764;-49
2023/07/06 08:46:03;;;;;;;4.40;1.77;;;;;;;;;;5052260;28;20420;-48
2023/07/06 08:48:31;;;;;;;4.60;2.20;;;;;;;;;;5052130;28;20433;-50
2023/07/06 08:51:09;;;;;;;3.73;2.47;;;;;;;;;;5052034;28;20415;-49
2023/07/06 08:53:35;;;;;;;4.90;2.13;;;;;;;;;;5051996;28;20415;-49
2023/07/06 08:56:03;;;;;;;4.10;2.40;;;;;;;;;;5052108;28;20566;-49
2023/07/06 08:58:34;;;;;;;6.10;2.27;;;;;;;;;;5052099;28;20845;-49
2023/07/06 09:01:12;;;;;;;4.20;2.30;;;;;;;;;;5051779;28;20412;-49
2023/07/06 09:03:48;;;;;;;2.47;1.77;;;;;;;;;;5051926;28;20420;-49
2023/07/06 09:06:21;;;;;;;7.23;2.30;;;;;;;;;;5051668;28;20425;-51
2023/07/06 09:08:48;;;;;;;3.00;1.93;;;;;;;;;;5051863;28;20437;-49
2023/07/06 09:11:15;;;;;;;6.80;2.33;;;;;;;;;;5051638;28;20413;-48
2023/07/06 09:13:49;;;;;;;3.13;1.83;;;;;;;;;;5051688;28;20460;-49
2023/07/06 09:16:18;;;;;;;2.57;2.10;;;;;;;;;;5051684;28;20413;-50
2023/07/06 09:18:44;;;;;;;4.93;2.00;;;;;;;;;;5056242;28;20569;-48
2023/07/06 09:21:10;;;;;;;3.60;2.10;;;;;;;;;;5055664;28;20416;-49
2023/07/06 09:23:36;;;;;;;3.80;2.30;;;;;;;;;;5051507;28;20405;-49
2023/07/06 09:26:06;;;;;;;5.47;2.67;;;;;;;;;;5051556;28;20418;-49
2023/07/06 09:28:32;;;;;;;3.20;2.00;;;;;;;;;;5051580;28;20428;-50
2023/07/06 09:31:09;;;;;;;5.10;2.53;;;;;;;;;;5051292;28;20786;-49
2023/07/06 09:33:35;;;;;;;5.77;1.70;;;;;;;;;;5051472;28;20458;-48
2023/07/06 09:36:01;;;;;;;2.87;1.90;;;;;;;;;;5051467;28;20461;-48
2023/07/06 09:38:27;;;;;;;5.30;2.37;;;;;;;;;;5051379;28;20491;-48
2023/07/06 09:40:54;;;;;;;5.20;2.03;;;;;;;;;;5051196;28;20504;-49
2023/07/06 09:43:22;;;;;;;3.43;1.87;;;;;;;;;;5051344;28;20410;-49
2023/07/06 09:45:49;;;;;;;3.53;1.93;;;;;;;;;;5050895;28;20413;-49
2023/07/06 09:48:25;;;;;;;3.77;2.10;;;;;;;;;;5051541;28;20776;-49
2023/07/06 09:50:52;;;;;;;2.97;2.17;;;;;;;;;;5051077;28;20404;-48
2023/07/06 09:53:26;;;;;;;3.50;1.93;;;;;;;;;;5051445;28;20449;-48
2023/07/06 09:55:52;;;;;;;7.17;2.00;;;;;;;;;;5051206;28;20515;-50
2023/07/06 09:58:21;;;;;;;4.30;2.00;;;;;;;;;;5051243;28;20479;-49
2023/07/06 10:00:50;;;;;;;4.10;2.07;;;;;;;;;;5051212;28;20475;-48
2023/07/06 10:03:34;;;;;;;5.20;2.30;;;;;;;;;;5051357;28;20424;-49
2023/07/06 10:06:07;;;;;;;4.17;2.20;;;;;;;;;;5051090;28;20405;-50
2023/07/06 10:08:56;;;;;;;14.37;2.07;;;;;;;;;;5050878;28;20445;-49
2023/07/06 10:11:28;;;;;;;3.70;2.30;;;;;;;;;;5050550;28;20426;-48
2023/07/06 10:14:05;;;;;;;3.77;1.73;;;;;;;;;;5051036;28;20534;-47
2023/07/06 10:16:43;;;;;;;36.20;4.63;;;;;;;;;;5051146;28;20776;-49
2023/07/06 10:19:30;;;;;;;3.93;1.90;;;;;;;;;;5051076;28;20470;-50
2023/07/06 10:22:14;;;;;;;6.53;2.10;;;;;;;;;;5045211;28;20390;-50
2023/07/06 10:25:00;;;;;;;2.37;1.90;;;;;;;;;;5043328;28;20397;-48
2023/07/06 10:27:28;;;;;;;5.07;2.00;;;;;;;;;;5050923;28;20426;-48
2023/07/06 10:29:57;;;;;;;5.17;1.90;;;;;;;;;;5050841;28;20415;-50
2023/07/06 10:32:34;;;;;;;2.57;1.90;;;;;;;;;;5050953;28;20413;-48
2023/07/06 10:35:02;;;;;;;2.97;1.87;;;;;;;;;;5050839;28;20985;-48
2023/07/06 10:37:28;;;;;;;3.40;1.87;;;;;;;;;;5050772;28;20552;-48
2023/07/06 10:39:55;;;;;;;3.37;1.73;;;;;;;;;;5050673;28;20401;-48
2023/07/06 10:42:23;;;;;;;4.43;1.97;;;;;;;;;;5050905;28;20756;-48
2023/07/06 10:44:51;;;;;;;6.20;2.03;;;;;;;;;;5045905;28;20417;-49
2023/07/06 10:47:29;;;;;;;2.50;1.60;;;;;;;;;;5035705;28;20881;-49
2023/07/06 10:50:15;;;;;;;2.60;2.40;;;;;;;;;;5049343;28;20406;-49
2023/07/06 10:52:50;;;;;;;4.10;1.97;;;;;;;;;;5033997;28;20449;-52
2023/07/06 10:55:19;;;;;;;4.13;1.93;;;;;;;;;;5042386;28;20469;-52
2023/07/06 10:57:52;;;;;;;5.63;2.10;;;;;;;;;;5047757;28;20965;-51
2023/07/06 11:00:20;;;;;;;5.70;1.90;;;;;;;;;;5047227;28;20709;-50
2023/07/06 11:02:46;;;;;;;5.70;1.87;;;;;;;;;;5050435;28;20416;-51
2023/07/06 11:05:25;;;;;;;3.30;1.60;;;;;;;;;;5046356;28;20414;-50
2023/07/06 11:07:53;;;;;;;4.50;2.00;;;;;;;;;;5049613;28;20448;-52
2023/07/06 11:10:22;;;;;;;7.27;1.80;;;;;;;;;;5052081;28;20417;-52
2023/07/06 11:12:52;;;;;;;2.10;1.60;;;;;;;;;;5054253;28;20478;-50
2023/07/06 11:15:21;;;;;;;3.30;2.00;;;;;;;;;;5052239;28;20464;-53
2023/07/06 11:17:50;;;;;;;3.27;1.90;;;;;;;;;;5052839;28;20427;-52
2023/07/06 11:20:19;;;;;;;1.70;1.60;;;;;;;;;;5053837;28;21077;-52
2023/07/06 11:22:47;;;;;;;3.57;1.90;;;;;;;;;;5053490;28;20432;-52
2023/07/06 11:25:14;;;;;;;4.90;2.10;;;;;;;;;;5053612;28;20794;-51
2023/07/06 11:27:44;;;;;;;3.47;1.63;;;;;;;;;;5053638;28;20516;-49
2023/07/06 11:30:12;;;;;;;5.23;2.03;;;;;;;;;;5053521;28;20478;-52
2023/07/06 11:32:47;;;;;;;4.03;1.83;;;;;;;;;;5045748;28;20409;-53
2023/07/06 11:35:30;;;;;;;2.60;1.70;;;;;;;;;;5053640;28;20468;-52
2023/07/06 11:38:15;;;;;;;4.63;1.73;;;;;;;;;;5053268;28;20425;-51
2023/07/06 11:41:00;;;;;;;5.27;1.60;;;;;;;;;;5046095;28;20783;-51
2023/07/06 11:43:34;;;;;;;2.30;1.80;;;;;;;;;;5053464;28;20412;-52
2023/07/06 11:46:00;;;;;;;2.53;1.60;;;;;;;;;;5053475;28;20409;-51
2023/07/06 11:48:29;;;;;;;1.70;1.60;;;;;;;;;;5053271;28;20421;-50
2023/07/06 11:50:55;;;;;;;2.70;1.50;;;;;;;;;;5047550;28;20738;-53
2023/07/06 11:56:19;;;;;;;2.30;1.53;;;;;;;;;;5053344;28;20471;-50
2023/07/06 11:58:56;;;;;;;1.73;1.50;;;;;;;;;;5048897;28;20805;-50
2023/07/06 12:01:47;;;;;;;2.87;2.03;;;;;;;;;;5053134;28;20894;-51
2023/07/06 12:04:20;;;;;;;3.67;1.73;;;;;;;;;;5052851;28;20425;-50
2023/07/06 12:06:48;;;;;;;3.60;1.80;;;;;;;;;;5045835;28;20466;-52
2023/07/06 12:09:22;;;;;;;5.10;2.20;;;;;;;;;;5051784;28;20427;-51
2023/07/06 12:12:03;;;;;;;2.23;1.90;;;;;;;;;;5053157;28;20415;-51
2023/07/06 12:14:34;;;;;;;2.07;1.90;;;;;;;;;;5053129;28;20449;-52
2023/07/06 12:17:01;;;;;;;3.33;1.90;;;;;;;;;;5053000;28;20495;-51
2023/07/06 12:19:28;;;;;;;2.17;1.83;;;;;;;;;;5052796;28;20898;-52
2023/07/06 12:21:55;;;;;;;2.40;1.77;;;;;;;;;;5052706;28;20406;-52
2023/07/06 12:24:22;;;;;;;3.00;1.50;;;;;;;;;;5053055;28;20812;-51
2023/07/06 12:26:52;;;;;;;2.43;1.90;;;;;;;;;;5052636;28;20895;-52
2023/07/06 12:29:19;;;;;;;6.30;2.07;;;;;;;;;;5052766;28;20784;-52
2023/07/06 12:31:46;;;;;;;3.53;1.90;;;;;;;;;;5052837;28;20832;-49
2023/07/06 12:34:16;;;;;;;6.57;1.70;;;;;;;;;;5052120;28;20555;-51
2023/07/06 12:36:43;;;;;;;1.70;1.60;;;;;;;;;;5052896;28;20413;-51
2023/07/06 12:39:13;;;;;;;2.30;1.60;;;;;;;;;;5052507;28;20402;-52
2023/07/06 12:41:39;;;;;;;3.03;1.97;;;;;;;;;;5052374;28;20404;-51
2023/07/06 12:44:06;;;;;;;2.80;1.93;;;;;;;;;;5032554;28;20409;-52
2023/07/06 12:46:33;;;;;;;3.63;1.80;;;;;;;;;;5049437;28;20409;-49
2023/07/06 12:49:02;;;;;;;5.13;2.10;;;;;;;;;;5051877;28;20457;-51
2023/07/06 12:51:29;;;;;;;2.07;1.50;;;;;;;;;;5052024;28;20467;-53
2023/07/06 12:53:57;;;;;;;6.60;1.87;;;;;;;;;;5052119;28;20896;-50
2023/07/06 12:56:24;;;;;;;2.60;1.63;;;;;;;;;;5052060;28;20424;-52
2023/07/06 12:58:58;;;;;;;4.47;1.70;;;;;;;;;;5052090;28;20515;-51
2023/07/06 13:01:30;;;;;;;1.97;1.60;;;;;;;;;;5051672;28;20404;-53
2023/07/06 13:04:01;;;;;;;3.37;1.90;;;;;;;;;;5051324;28;20397;-51
2023/07/06 13:06:28;;;;;;;7.53;2.20;;;;;;;;;;5051676;28;20432;-52
2023/07/06 13:08:55;;;;;;;2.10;1.70;;;;;;;;;;5051776;28;20555;-51
2023/07/06 13:11:26;;;;;;;1.67;1.57;;;;;;;;;;5050340;28;20508;-53
2023/07/06 13:13:55;;;;;;;3.83;2.00;;;;;;;;;;5051081;28;20493;-52
2023/07/06 13:16:21;;;;;;;9.33;1.80;;;;;;;;;;5051856;28;20410;-52
2023/07/06 13:18:47;;;;;;;1.73;1.60;;;;;;;;;;5051235;28;20435;-49
2023/07/06 13:21:17;;;;;;;2.10;1.70;;;;;;;;;;5051448;28;20421;-50
2023/07/06 13:23:48;;;;;;;1.77;1.60;;;;;;;;;;5051452;28;20417;-51
2023/07/06 13:26:14;;;;;;;2.37;1.30;;;;;;;;;;5051506;28;20409;-52
2023/07/06 13:28:40;;;;;;;1.80;1.37;;;;;;;;;;5051069;28;20433;-52
2023/07/06 13:31:12;;;;;;;1.90;1.70;;;;;;;;;;5050259;28;20986;-50
2023/07/06 13:33:40;;;;;;;2.60;1.30;;;;;;;;;;5043636;28;20770;-51
2023/07/06 13:36:08;;;;;;;1.97;1.50;;;;;;;;;;5051547;28;20719;-52
2023/07/06 13:38:35;;;;;;;1.83;1.67;;;;;;;;;;5051388;28;20433;-50
2023/07/06 13:41:02;;;;;;;2.90;1.20;;;;;;;;;;5051161;28;20428;-49
2023/07/06 13:43:28;;;;;;;1.60;1.30;;;;;;;;;;5051324;28;20893;-52
2023/07/06 13:45:56;;;;;;;1.63;1.27;;;;;;;;;;5051460;28;20488;-52
2023/07/06 13:48:23;;;;;;;2.23;1.30;;;;;;;;;;5051285;28;20444;-52
2023/07/06 13:50:48;;;;;;;2.60;1.37;;;;;;;;;;5051128;28;20405;-52
2023/07/06 13:53:15;;;;;;;1.77;1.60;;;;;;;;;;5051340;28;20838;-53
2023/07/06 13:55:44;;;;;;;2.27;1.40;;;;;;;;;;5051153;28;20526;-52
2023/07/06 13:58:11;;;;;;;3.33;1.37;;;;;;;;;;5051054;28;20429;-52
2023/07/06 14:00:37;;;;;;;8.40;1.60;;;;;;;;;;5050990;28;20420;-52
2023/07/06 14:03:03;;;;;;;2.10;1.63;;;;;;;;;;5050973;28;20405;-52
2023/07/06 14:05:30;;;;;;;2.90;1.57;;;;;;;;;;5050998;28;20401;-52
2023/07/06 14:07:56;;;;;;;1.20;1.10;;;;;;;;;;5049238;28;20441;-51
2023/07/06 14:10:22;;;;;;;4.40;1.37;;;;;;;;;;5048956;28;20432;-50
2023/07/06 14:12:49;;;;;;;1.87;1.20;;;;;;;;;;5049332;28;20405;-51
2023/07/06 14:15:18;;;;;;;1.37;1.27;;;;;;;;;;5048950;28;20464;-52
2023/07/06 14:17:47;;;;;;;1.60;1.50;;;;;;;;;;5049113;28;20460;-50
2023/07/06 14:20:14;;;;;;;1.70;1.50;;;;;;;;;;5057021;28;20488;-48
2023/07/06 14:22:41;;;;;;;1.53;1.30;;;;;;;;;;5050156;28;20895;-52
2023/07/06 14:25:14;;;;;;;2.30;1.30;;;;;;;;;;5050898;28;20405;-51
2023/07/06 14:27:40;;;;;;;3.77;1.50;;;;;;;;;;5050491;28;20465;-49
2023/07/06 14:30:07;;;;;;;10.63;2.43;;;;;;;;;;5051225;28;20416;-52
2023/07/06 14:32:33;;;;;;;1.67;1.57;;;;;;;;;;5054889;28;20427;-52
2023/07/06 14:34:58;;;;;;;2.40;1.50;;;;;;;;;;5054691;28;20919;-52
2023/07/06 14:37:24;;;;;;;3.03;1.60;;;;;;;;;;5054669;28;20435;-52
2023/07/06 14:39:53;;;;;;;5.07;1.47;;;;;;;;;;5054442;28;20449;-50
2023/07/06 14:42:19;;;;;;;2.23;1.60;;;;;;;;;;5054542;28;20450;-51
2023/07/06 14:44:45;;;;;;;1.50;1.40;;;;;;;;;;5054533;28;20779;-49
2023/07/06 14:47:11;;;;;;;19.10;2.80;;;;;;;;;;5054465;28;20437;-50
2023/07/06 14:49:37;;;;;;;4.23;1.40;;;;;;;;;;5054302;28;20409;-50
2023/07/06 14:52:03;;;;;;;5.27;1.60;;;;;;;;;;5054461;28;20785;-50
2023/07/06 14:54:29;;;;;;;2.97;1.70;;;;;;;;;;5054270;28;20453;-49